Time;durP1;ratioP1;P1;durP2;ratioP2;P2;SDS_P1;SDS_P2;PMS_P1;PMS_P2;Temp;Humidity;BMP_temperature;BMP_pressure;BME280_temperature;BME280_humidity;BME280_pressure;Samples;Min_cycle;Max_cycle;Signal;HPM_P1;HPM_P2
2023/06/27 00:00:21;;;;;;;2.65;1.20;;;22.90;99.30;;;;;;4975474;28;20027;-37
2023/06/27 00:02:46;;;;;;;3.10;1.20;;;22.90;99.30;;;;;;4975428;28;20033;-37
2023/06/27 00:05:12;;;;;;;3.55;1.38;;;22.90;99.40;;;;;;4975246;28;20386;-35
2023/06/27 00:07:40;;;;;;;3.00;1.20;;;22.90;99.40;;;;;;4975298;28;20047;-38
2023/06/27 00:10:06;;;;;;;2.75;1.30;;;22.90;99.30;;;;;;4975357;28;20037;-35
2023/06/27 00:12:32;;;;;;;1.70;1.20;;;22.90;99.30;;;;;;4975359;28;20027;-38
2023/06/27 00:14:57;;;;;;;3.25;1.38;;;22.90;99.40;;;;;;4974960;28;20406;-36
2023/06/27 00:17:23;;;;;;;3.42;1.40;;;22.80;99.30;;;;;;4975290;28;20031;-38
2023/06/27 00:19:49;;;;;;;3.53;1.20;;;22.80;99.30;;;;;;4975152;28;20030;-37
2023/06/27 00:22:15;;;;;;;2.53;1.30;;;22.90;99.40;;;;;;4975127;28;20019;-38
2023/06/27 00:24:41;;;;;;;5.00;1.30;;;22.80;99.70;;;;;;4974900;28;20109;-37
2023/06/27 00:27:07;;;;;;;2.35;1.02;;;22.90;99.40;;;;;;4974974;28;20067;-38
2023/06/27 00:29:33;;;;;;;3.58;1.10;;;22.80;99.30;;;;;;4975101;28;20054;-38
2023/06/27 00:31:58;;;;;;;5.45;1.25;;;22.80;99.40;;;;;;4975035;28;20031;-37
2023/06/27 00:34:24;;;;;;;2.10;1.10;;;22.80;99.70;;;;;;4974875;28;20368;-38
2023/06/27 00:36:50;;;;;;;3.88;1.15;;;22.80;99.40;;;;;;4974611;28;20109;-36
2023/06/27 00:39:15;;;;;;;3.10;1.20;;;22.90;99.40;;;;;;4974785;28;20026;-38
2023/06/27 00:41:41;;;;;;;2.65;1.38;;;22.80;99.30;;;;;;4974872;28;20029;-37
2023/06/27 00:44:08;;;;;;;2.63;1.10;;;22.80;99.30;;;;;;4974678;28;20030;-35
2023/06/27 00:46:41;;;;;;;2.70;1.33;;;22.80;99.70;;;;;;4974540;28;20019;-36
2023/06/27 00:49:10;;;;;;;3.17;1.30;;;22.80;99.40;;;;;;4974795;28;20023;-38
2023/06/27 00:51:38;;;;;;;2.65;1.20;;;22.80;99.40;;;;;;4974663;28;20035;-36
2023/06/27 00:54:04;;;;;;;3.08;1.40;;;22.80;99.40;;;;;;4989239;28;20074;-38
2023/06/27 00:56:29;;;;;;;1.63;1.10;;;22.80;99.40;;;;;;4974698;28;20027;-38
2023/06/27 00:58:58;;;;;;;2.25;1.00;;;22.80;99.40;;;;;;4974222;28;20062;-38
2023/06/27 01:01:25;;;;;;;2.50;1.13;;;22.80;99.40;;;;;;4974531;28;20457;-35
2023/06/27 01:03:51;;;;;;;2.10;1.20;;;22.80;99.40;;;;;;4974368;28;20270;-40
2023/06/27 01:06:27;;;;;;;3.72;1.13;;;22.80;99.40;;;;;;4974192;28;20027;-38
2023/06/27 01:09:01;;;;;;;1.98;1.13;;;22.70;99.40;;;;;;4974330;28;20031;-39
2023/06/27 01:11:36;;;;;;;2.25;1.25;;;22.70;99.40;;;;;;4974463;28;20310;-39
2023/06/27 01:14:03;;;;;;;1.70;0.98;;;22.70;99.40;;;;;;4974059;28;20030;-39
2023/06/27 01:16:30;;;;;;;3.53;1.45;;;22.70;99.40;;;;;;4973860;28;20102;-36
2023/06/27 01:19:00;;;;;;;2.05;1.27;;;22.80;99.40;;;;;;4974043;28;20022;-38
2023/06/27 01:21:30;;;;;;;2.83;1.33;;;22.70;99.40;;;;;;4974289;28;20109;-38
2023/06/27 01:23:58;;;;;;;3.63;1.58;;;22.70;99.80;;;;;;4973933;28;20023;-37
2023/06/27 01:26:27;;;;;;;2.13;0.93;;;22.70;99.40;;;;;;4973769;28;20490;-37
2023/06/27 01:28:53;;;;;;;4.93;1.27;;;22.70;99.40;;;;;;4973932;28;20062;-38
2023/06/27 01:31:40;;;;;;;1.95;0.95;;;22.70;99.40;;;;;;4973980;28;20057;-36
2023/06/27 01:34:12;;;;;;;2.05;1.13;;;22.70;99.50;;;;;;4973847;28;20023;-37
2023/06/27 01:36:48;;;;;;;2.58;1.23;;;22.70;99.40;;;;;;4973608;28;20502;-37
2023/06/27 01:39:19;;;;;;;2.90;1.20;;;22.70;99.40;;;;;;4974192;28;20113;-37
2023/06/27 01:41:49;;;;;;;1.75;1.10;;;22.70;99.40;;;;;;4973836;28;20035;-37
2023/06/27 01:44:17;;;;;;;1.70;0.90;;;22.70;99.40;;;;;;4974048;28;20029;-38
2023/06/27 01:46:44;;;;;;;3.03;1.20;;;22.70;99.40;;;;;;4973587;28;20026;-38
2023/06/27 01:49:10;;;;;;;3.10;1.33;;;22.70;99.40;;;;;;4973610;28;20062;-35
2023/06/27 01:51:36;;;;;;;3.13;1.17;;;22.60;99.40;;;;;;4973577;28;20102;-38
2023/06/27 01:54:02;;;;;;;2.95;1.15;;;22.70;99.40;;;;;;4973270;28;20431;-38
2023/06/27 01:56:27;;;;;;;2.13;1.17;;;22.70;99.40;;;;;;4973179;28;20019;-36
2023/06/27 01:58:53;;;;;;;1.73;1.00;;;22.60;99.40;;;;;;4973384;28;20019;-36
2023/06/27 02:01:19;;;;;;;2.22;1.30;;;22.60;99.40;;;;;;4973326;28;20029;-38
2023/06/27 02:03:44;;;;;;;3.03;1.10;;;22.60;99.40;;;;;;4973288;28;20427;-36
2023/06/27 02:06:10;;;;;;;2.33;1.00;;;22.60;99.40;;;;;;4973094;28;20027;-38
2023/06/27 02:08:36;;;;;;;3.78;1.30;;;22.60;99.40;;;;;;4973228;28;20506;-37
2023/06/27 02:11:01;;;;;;;3.70;1.20;;;22.60;99.40;;;;;;4972743;28;20039;-38
2023/06/27 02:13:27;;;;;;;2.45;1.25;;;22.60;99.40;;;;;;4973688;28;20402;-37
2023/06/27 02:15:52;;;;;;;2.28;1.17;;;22.60;99.40;;;;;;4972916;28;20482;-40
2023/06/27 02:18:18;;;;;;;2.10;1.10;;;22.60;99.40;;;;;;4973125;28;20042;-39
2023/06/27 02:20:44;;;;;;;2.00;1.15;;;22.60;99.40;;;;;;4972972;28;20508;-38
2023/06/27 02:23:09;;;;;;;3.88;1.20;;;22.60;99.50;;;;;;4972827;28;20029;-35
2023/06/27 02:25:35;;;;;;;2.95;1.20;;;22.60;99.50;;;;;;4972733;28;20026;-38
2023/06/27 02:28:01;;;;;;;2.28;1.20;;;22.60;99.50;;;;;;4972954;28;20109;-39
2023/06/27 02:30:26;;;;;;;2.70;1.20;;;22.60;99.40;;;;;;4972912;28;20046;-37
2023/06/27 02:32:52;;;;;;;3.78;1.23;;;22.60;99.50;;;;;;4972835;28;20034;-36
2023/06/27 02:35:17;;;;;;;3.38;1.42;;;22.60;99.50;;;;;;4972670;28;20065;-38
2023/06/27 02:37:43;;;;;;;2.28;1.23;;;22.60;99.50;;;;;;4972716;28;20043;-36
2023/06/27 02:40:09;;;;;;;2.50;1.20;;;22.60;99.50;;;;;;4972808;28;20022;-37
2023/06/27 02:42:35;;;;;;;3.78;1.20;;;22.50;99.40;;;;;;4972761;28;20022;-37
2023/06/27 02:45:01;;;;;;;2.42;1.00;;;22.60;99.50;;;;;;4971211;28;20482;-37
2023/06/27 02:47:26;;;;;;;2.03;1.20;;;22.50;99.40;;;;;;4972822;28;20031;-38
2023/06/27 02:49:52;;;;;;;2.65;1.42;;;22.50;99.40;;;;;;4972704;28;20091;-37
2023/06/27 02:52:17;;;;;;;3.72;1.33;;;22.50;99.40;;;;;;4972466;28;20553;-38
2023/06/27 02:54:43;;;;;;;5.57;1.77;;;22.50;99.40;;;;;;4972355;28;20114;-39
2023/06/27 02:57:10;;;;;;;2.40;1.10;;;22.50;99.40;;;;;;4972590;28;20027;-35
2023/06/27 02:59:35;;;;;;;1.83;0.98;;;22.50;99.40;;;;;;4972491;28;20026;-37
2023/06/27 03:02:01;;;;;;;2.60;1.27;;;22.60;99.40;;;;;;4972513;28;20027;-35
2023/06/27 03:04:27;;;;;;;2.22;1.08;;;22.50;99.40;;;;;;4972383;28;20019;-38
2023/06/27 03:06:53;;;;;;;1.77;1.20;;;22.50;99.40;;;;;;4972191;28;20027;-37
2023/06/27 03:09:19;;;;;;;3.92;1.33;;;22.50;99.40;;;;;;4972424;28;20037;-38
2023/06/27 03:11:45;;;;;;;1.80;1.10;;;22.50;99.40;;;;;;4972532;28;20035;-40
2023/06/27 03:14:10;;;;;;;2.65;1.25;;;22.50;99.40;;;;;;4972355;28;20041;-37
2023/06/27 03:16:36;;;;;;;4.00;1.55;;;22.50;99.40;;;;;;4972151;28;20434;-35
2023/06/27 03:19:02;;;;;;;2.13;1.10;;;22.50;99.40;;;;;;4972469;28;20478;-37
2023/06/27 03:21:27;;;;;;;3.38;1.20;;;22.50;99.40;;;;;;4972235;28;20061;-37
2023/06/27 03:23:53;;;;;;;2.45;1.27;;;22.50;99.40;;;;;;4976136;28;20050;-36
2023/06/27 03:26:23;;;;;;;5.18;1.83;;;22.50;99.40;;;;;;4976061;28;20414;-37
2023/06/27 03:28:48;;;;;;;2.28;1.00;;;22.50;99.30;;;;;;4976732;28;20050;-38
2023/06/27 03:31:14;;;;;;;4.30;1.25;;;22.50;99.30;;;;;;4976947;28;20453;-35
2023/06/27 03:33:39;;;;;;;2.47;1.25;;;22.50;99.30;;;;;;4976059;28;20364;-38
2023/06/27 03:36:05;;;;;;;2.60;1.10;;;22.50;99.30;;;;;;4976085;28;20033;-37
2023/06/27 03:38:31;;;;;;;2.25;1.23;;;22.50;99.30;;;;;;4976283;28;20050;-37
2023/06/27 03:40:56;;;;;;;2.53;1.15;;;22.50;99.40;;;;;;4976355;28;20434;-36
2023/06/27 03:43:24;;;;;;;3.80;1.30;;;22.50;99.30;;;;;;4975844;28;20085;-39
2023/06/27 03:45:49;;;;;;;2.50;1.40;;;22.50;99.40;;;;;;4975591;28;20394;-37
2023/06/27 03:48:15;;;;;;;2.75;0.93;;;22.50;99.40;;;;;;4975831;28;20027;-38
2023/06/27 03:50:41;;;;;;;4.22;1.40;;;22.40;99.40;;;;;;4975675;28;20066;-38
2023/06/27 03:53:06;;;;;;;1.92;1.10;;;22.40;99.40;;;;;;4975933;28;20606;-37
2023/06/27 03:55:33;;;;;;;4.00;1.45;;;22.40;99.40;;;;;;4975648;28;20110;-35
2023/06/27 03:57:59;;;;;;;1.90;1.02;;;22.50;99.40;;;;;;4974571;28;20402;-36
2023/06/27 04:00:25;;;;;;;1.88;1.13;;;22.40;99.40;;;;;;4975518;28;20085;-38
2023/06/27 04:02:51;;;;;;;4.10;1.48;;;22.40;99.40;;;;;;4975556;28;20081;-35
2023/06/27 04:05:16;;;;;;;1.75;1.10;;;22.40;99.40;;;;;;4975203;28;20026;-38
2023/06/27 04:07:42;;;;;;;2.08;1.20;;;22.40;99.40;;;;;;4975941;28;20387;-38
2023/06/27 04:10:08;;;;;;;4.65;1.27;;;22.40;99.40;;;;;;4975740;28;20483;-36
2023/06/27 04:12:34;;;;;;;3.17;1.23;;;22.40;99.40;;;;;;4975438;28;20034;-38
2023/06/27 04:14:59;;;;;;;3.30;1.20;;;22.40;99.40;;;;;;4974950;28;20030;-38
2023/06/27 04:17:25;;;;;;;2.75;1.13;;;22.40;99.40;;;;;;4975424;28;20478;-37
2023/06/27 04:19:50;;;;;;;2.45;1.05;;;22.40;99.40;;;;;;4975046;28;20030;-38
2023/06/27 04:22:16;;;;;;;2.08;1.10;;;22.40;99.40;;;;;;4975315;28;20105;-40
2023/06/27 04:24:41;;;;;;;1.98;1.10;;;22.40;99.40;;;;;;4975224;28;20026;-38
2023/06/27 04:27:10;;;;;;;4.45;1.00;;;22.40;99.40;;;;;;4974999;28;20031;-37
2023/06/27 04:29:37;;;;;;;3.10;1.20;;;22.40;99.70;;;;;;4975153;28;20054;-38
2023/06/27 04:32:03;;;;;;;2.75;1.20;;;22.40;99.40;;;;;;4975033;28;20054;-40
2023/06/27 04:34:28;;;;;;;2.55;0.98;;;22.30;99.30;;;;;;4974107;28;20073;-38
2023/06/27 04:36:54;;;;;;;2.85;1.10;;;22.30;99.40;;;;;;4974810;28;20034;-39
2023/06/27 04:39:20;;;;;;;1.42;1.00;;;22.40;99.40;;;;;;4974850;28;20505;-37
2023/06/27 04:41:46;;;;;;;1.70;1.17;;;22.30;99.30;;;;;;4974845;28;20027;-35
2023/06/27 04:44:11;;;;;;;1.75;1.10;;;22.30;99.40;;;;;;4974826;28;20026;-39
2023/06/27 04:46:37;;;;;;;2.38;1.05;;;22.30;99.40;;;;;;4974622;28;20026;-36
2023/06/27 04:49:03;;;;;;;2.00;1.00;;;22.40;99.40;;;;;;4974920;28;20463;-37
2023/06/27 04:51:29;;;;;;;3.00;1.30;;;22.30;99.30;;;;;;4975139;28;20042;-39
2023/06/27 04:53:55;;;;;;;1.58;1.05;;;22.40;99.40;;;;;;4974663;28;20030;-35
2023/06/27 04:56:22;;;;;;;2.58;1.20;;;22.30;99.30;;;;;;4974515;28;20031;-38
2023/06/27 04:58:48;;;;;;;1.90;1.08;;;22.30;99.40;;;;;;4974796;28;20034;-35
2023/06/27 05:01:14;;;;;;;2.63;1.23;;;22.30;99.30;;;;;;4974594;28;20398;-38
2023/06/27 05:03:41;;;;;;;2.70;1.30;;;22.30;99.40;;;;;;4973298;28;20037;-37
2023/06/27 05:06:07;;;;;;;4.28;1.10;;;22.30;99.30;;;;;;4974280;28;20023;-39
2023/06/27 05:08:34;;;;;;;2.35;1.15;;;22.30;99.40;;;;;;4974844;28;20398;-36
2023/06/27 05:11:00;;;;;;;4.13;1.38;;;22.30;99.40;;;;;;4974606;28;20548;-38
2023/06/27 05:13:26;;;;;;;2.50;1.17;;;22.30;99.40;;;;;;4974151;28;20031;-35
2023/06/27 05:15:52;;;;;;;2.33;1.20;;;22.30;99.40;;;;;;4972866;28;20027;-38
2023/06/27 05:18:17;;;;;;;2.00;1.30;;;22.30;99.40;;;;;;4975011;28;20029;-36
2023/06/27 05:20:44;;;;;;;2.72;1.33;;;22.30;99.40;;;;;;4974574;28;20027;-38
2023/06/27 05:23:10;;;;;;;2.95;1.48;;;22.30;99.40;;;;;;4974495;28;20034;-38
2023/06/27 05:25:36;;;;;;;2.92;1.33;;;22.30;99.40;;;;;;4973795;28;20031;-38
2023/06/27 05:28:02;;;;;;;1.95;1.10;;;22.30;99.40;;;;;;4974387;28;20110;-36
2023/06/27 05:30:28;;;;;;;1.55;1.02;;;22.30;99.40;;;;;;4974166;28;20397;-37
2023/06/27 05:32:54;;;;;;;2.42;1.27;;;22.30;99.40;;;;;;4973849;28;20035;-36
2023/06/27 05:35:20;;;;;;;2.17;1.15;;;22.30;99.40;;;;;;4973878;28;20052;-37
2023/06/27 05:37:46;;;;;;;3.90;1.30;;;22.30;99.40;;;;;;4974072;28;20030;-37
2023/06/27 05:40:12;;;;;;;3.70;1.08;;;22.30;99.30;;;;;;4973712;28;20098;-38
2023/06/27 05:42:38;;;;;;;1.65;1.20;;;22.30;99.30;;;;;;4974103;28;20077;-39
2023/06/27 05:45:05;;;;;;;2.35;1.20;;;22.30;99.40;;;;;;4973006;28;20026;-38
2023/06/27 05:47:30;;;;;;;1.75;1.02;;;22.30;99.30;;;;;;4973013;28;20019;-38
2023/06/27 05:49:56;;;;;;;3.38;1.45;;;22.30;99.30;;;;;;4973899;28;20034;-37
2023/06/27 05:52:22;;;;;;;2.55;1.23;;;22.30;99.30;;;;;;4974434;28;20031;-37
2023/06/27 05:54:48;;;;;;;2.75;1.27;;;22.30;99.30;;;;;;4973293;28;20058;-40
2023/06/27 05:57:14;;;;;;;3.72;1.48;;;22.30;99.40;;;;;;4973437;28;20429;-38
2023/06/27 05:59:40;;;;;;;2.08;1.20;;;22.30;99.30;;;;;;4973445;28;20026;-36
2023/06/27 06:02:06;;;;;;;2.45;1.27;;;22.30;99.30;;;;;;4973401;28;20027;-38
2023/06/27 06:04:35;;;;;;;2.42;1.30;;;22.30;99.30;;;;;;4973656;28;20026;-39
2023/06/27 06:07:03;;;;;;;3.72;1.30;;;22.30;99.30;;;;;;4974060;28;20399;-37
2023/06/27 06:09:29;;;;;;;2.35;1.30;;;22.30;99.30;;;;;;4973526;28;20034;-37
2023/06/27 06:11:55;;;;;;;2.00;1.25;;;22.30;99.30;;;;;;4973261;28;20093;-38
2023/06/27 06:14:21;;;;;;;3.90;1.25;;;22.30;99.30;;;;;;4972889;28;20038;-38
2023/06/27 06:16:47;;;;;;;1.58;1.10;;;22.30;99.30;;;;;;4973274;28;20069;-35
2023/06/27 06:19:13;;;;;;;2.30;1.05;;;22.30;99.40;;;;;;4973265;28;20107;-37
2023/06/27 06:21:39;;;;;;;2.67;1.17;;;22.30;99.40;;;;;;4973466;28;20035;-38
2023/06/27 06:24:05;;;;;;;2.40;1.08;;;22.30;99.40;;;;;;4973009;28;20027;-35
2023/06/27 06:26:30;;;;;;;3.10;1.10;;;22.30;99.30;;;;;;4972946;28;20075;-38
2023/06/27 06:28:56;;;;;;;2.17;1.30;;;22.30;99.30;;;;;;4972824;28;20050;-38
2023/06/27 06:31:24;;;;;;;4.22;1.48;;;22.30;99.30;;;;;;4973040;28;20023;-37
2023/06/27 06:33:50;;;;;;;1.75;1.20;;;22.30;99.30;;;;;;4972811;28;20054;-38
2023/06/27 06:36:15;;;;;;;2.92;1.33;;;22.30;99.30;;;;;;4972999;28;20059;-36
2023/06/27 06:38:41;;;;;;;2.63;1.17;;;22.30;99.30;;;;;;4972740;28;20486;-36
2023/06/27 06:41:07;;;;;;;1.98;1.30;;;22.30;99.30;;;;;;4972679;28;20042;-38
2023/06/27 06:43:32;;;;;;;2.05;1.20;;;22.30;99.30;;;;;;4972545;28;20041;-38
2023/06/27 06:45:59;;;;;;;2.17;1.08;;;22.30;99.30;;;;;;4972424;28;20027;-38
2023/06/27 06:48:24;;;;;;;2.58;1.27;;;22.30;99.20;;;;;;4972680;28;20059;-37
2023/06/27 06:50:51;;;;;;;3.10;1.40;;;22.30;99.20;;;;;;4972671;28;20453;-35
2023/06/27 06:53:20;;;;;;;2.20;1.20;;;22.30;99.30;;;;;;4972719;28;20070;-38
2023/06/27 06:55:46;;;;;;;1.63;1.20;;;22.30;99.30;;;;;;4972317;28;20070;-40
2023/06/27 06:58:12;;;;;;;2.55;1.17;;;22.30;99.20;;;;;;4972177;28;20027;-41
2023/06/27 07:00:38;;;;;;;1.45;1.00;;;22.30;99.50;;;;;;4972759;28;20438;-37
2023/06/27 07:03:08;;;;;;;3.72;1.27;;;22.30;99.10;;;;;;4972468;28;20030;-37
2023/06/27 07:05:35;;;;;;;2.72;1.27;;;22.30;99.10;;;;;;4972743;28;20030;-39
2023/06/27 07:08:04;;;;;;;1.80;1.00;;;22.30;99.10;;;;;;4972873;28;20023;-39
2023/06/27 07:10:31;;;;;;;3.97;1.33;;;22.30;99.00;;;;;;4972541;28;20117;-37
2023/06/27 07:12:57;;;;;;;3.25;1.00;;;22.30;99.10;;;;;;4972694;28;20041;-37
2023/06/27 07:15:23;;;;;;;2.92;1.70;;;22.30;99.10;;;;;;4972164;28;20038;-37
2023/06/27 07:17:50;;;;;;;2.33;1.05;;;22.30;99.10;;;;;;4972730;28;20402;-36
2023/06/27 07:20:16;;;;;;;2.03;0.98;;;22.30;99.10;;;;;;4972541;28;20023;-37
2023/06/27 07:22:42;;;;;;;2.88;1.23;;;22.30;99.00;;;;;;4972628;28;20109;-38
2023/06/27 07:25:08;;;;;;;3.22;1.25;;;22.30;99.00;;;;;;4972005;28;20053;-39
2023/06/27 07:27:34;;;;;;;2.10;1.20;;;22.30;99.10;;;;;;4972307;28;20482;-37
2023/06/27 07:29:59;;;;;;;3.05;1.27;;;22.30;99.10;;;;;;4970973;28;20031;-39
2023/06/27 07:32:25;;;;;;;2.00;1.13;;;22.30;99.10;;;;;;4972336;28;20502;-38
2023/06/27 07:34:51;;;;;;;1.75;1.05;;;22.30;99.00;;;;;;4972470;28;20118;-37
2023/06/27 07:37:16;;;;;;;4.65;1.20;;;22.30;99.10;;;;;;4972655;28;20058;-36
2023/06/27 07:39:42;;;;;;;4.30;1.10;;;22.30;99.00;;;;;;4972041;28;20041;-37
2023/06/27 07:42:08;;;;;;;1.65;0.98;;;22.30;99.00;;;;;;4972089;28;20035;-37
2023/06/27 07:44:34;;;;;;;1.40;1.02;;;22.30;99.00;;;;;;4972773;28;20118;-37
2023/06/27 07:46:59;;;;;;;3.67;1.30;;;22.30;99.00;;;;;;4971897;28;20391;-37
2023/06/27 07:49:25;;;;;;;1.88;0.95;;;22.30;99.00;;;;;;4972083;28;20058;-38
2023/06/27 07:51:51;;;;;;;1.55;1.00;;;22.30;99.00;;;;;;4972069;28;20030;-38
2023/06/27 07:54:19;;;;;;;1.50;0.95;;;22.30;99.10;;;;;;4972233;28;20023;-38
2023/06/27 07:56:47;;;;;;;1.67;1.02;;;22.30;99.00;;;;;;4971975;28;20065;-37
2023/06/27 07:59:13;;;;;;;2.58;1.20;;;22.30;99.00;;;;;;4971961;28;20022;-35
2023/06/27 08:01:40;;;;;;;1.45;0.80;;;22.30;99.00;;;;;;4972273;28;20487;-36
2023/06/27 08:04:06;;;;;;;3.45;1.20;;;22.30;98.90;;;;;;4972034;28;20503;-37
2023/06/27 08:06:32;;;;;;;3.47;1.10;;;22.30;99.00;;;;;;4971738;28;20429;-38
2023/06/27 08:08:58;;;;;;;1.15;0.90;;;22.30;99.00;;;;;;4972224;28;20027;-37
2023/06/27 08:11:23;;;;;;;2.35;1.10;;;22.30;99.00;;;;;;4975658;28;20035;-37
2023/06/27 08:13:49;;;;;;;1.75;0.90;;;22.40;99.00;;;;;;4975721;28;20066;-38
2023/06/27 08:16:15;;;;;;;2.30;1.10;;;22.40;99.00;;;;;;4975187;28;20038;-38
2023/06/27 08:18:40;;;;;;;3.38;1.00;;;22.40;99.40;;;;;;4975417;28;20030;-37
2023/06/27 08:21:06;;;;;;;1.58;1.00;;;22.40;99.00;;;;;;4975404;28;20042;-36
2023/06/27 08:23:31;;;;;;;2.83;1.10;;;22.40;99.00;;;;;;4974988;28;20081;-37
2023/06/27 08:25:57;;;;;;;1.38;0.98;;;22.40;99.30;;;;;;4975134;28;20101;-36
2023/06/27 08:28:23;;;;;;;2.15;1.02;;;22.40;99.00;;;;;;4975147;28;20023;-37
2023/06/27 08:30:48;;;;;;;2.88;1.27;;;22.40;99.00;;;;;;4975283;28;20110;-37
2023/06/27 08:33:14;;;;;;;3.97;1.10;;;22.40;98.90;;;;;;4975185;28;20030;-37
2023/06/27 08:35:39;;;;;;;2.50;1.10;;;22.40;99.00;;;;;;4974816;28;20390;-38
2023/06/27 08:38:06;;;;;;;3.03;1.42;;;22.40;99.00;;;;;;4974989;28;20394;-38
2023/06/27 08:40:38;;;;;;;2.50;0.98;;;22.40;99.00;;;;;;4974831;28;20110;-37
2023/06/27 08:43:05;;;;;;;1.67;1.00;;;22.40;99.00;;;;;;4974776;28;20037;-37
2023/06/27 08:45:31;;;;;;;2.40;1.05;;;22.40;99.00;;;;;;4974711;28;20054;-40
2023/06/27 08:47:57;;;;;;;1.60;0.80;;;22.40;99.00;;;;;;4974840;28;20050;-36
2023/06/27 08:50:25;;;;;;;6.07;1.10;;;22.40;98.90;;;;;;4974710;28;20078;-37
2023/06/27 08:52:58;;;;;;;1.48;0.93;;;22.40;98.90;;;;;;4974635;28;20081;-37
2023/06/27 08:55:34;;;;;;;3.33;1.20;;;22.40;98.90;;;;;;4974579;28;20069;-38
2023/06/27 08:58:04;;;;;;;1.83;1.02;;;22.40;98.90;;;;;;4974777;28;20027;-37
2023/06/27 09:00:30;;;;;;;1.08;0.85;;;22.40;98.90;;;;;;4974503;28;20114;-35
2023/06/27 09:02:56;;;;;;;2.53;1.23;;;22.40;98.90;;;;;;4974408;28;20445;-37
2023/06/27 09:05:23;;;;;;;3.42;0.90;;;22.40;98.90;;;;;;4974168;28;21009;-38
2023/06/27 09:07:49;;;;;;;2.20;1.10;;;22.40;98.90;;;;;;4974336;28;20089;-37
2023/06/27 09:10:15;;;;;;;1.85;0.90;;;22.40;98.90;;;;;;4974460;28;20031;-36
2023/06/27 09:12:45;;;;;;;9.68;1.83;;;22.40;98.90;;;;;;4974357;28;20498;-36
2023/06/27 09:15:11;;;;;;;8.00;1.50;;;22.30;95.30;;;;;;4974074;28;20530;-36
2023/06/27 09:17:38;;;;;;;6.72;1.67;;;22.30;95.90;;;;;;4974202;28;20065;-37
2023/06/27 09:20:07;;;;;;;6.55;1.80;;;22.30;96.50;;;;;;4974056;28;20130;-38
2023/06/27 09:22:34;;;;;;;5.75;1.48;;;22.30;96.60;;;;;;4974157;28;20022;-37
2023/06/27 09:25:14;;;;;;;6.80;1.50;;;22.30;96.70;;;;;;4974103;28;20480;-37
2023/06/27 09:27:40;;;;;;;4.82;1.25;;;22.30;96.90;;;;;;4974099;28;20026;-38
2023/06/27 09:30:08;;;;;;;3.13;1.40;;;22.30;97.10;;;;;;4973933;28;20049;-37
2023/06/27 09:32:56;;;;;;;5.38;1.33;;;22.30;97.10;;;;;;4973926;28;20023;-37
2023/06/27 09:35:23;;;;;;;6.90;1.50;;;22.30;97.20;;;;;;4973804;28;20030;-38
2023/06/27 09:37:50;;;;;;;2.67;1.20;;;22.30;97.30;;;;;;4974167;28;20050;-38
2023/06/27 09:40:21;;;;;;;5.70;1.52;;;22.30;97.30;;;;;;4973881;28;20383;-38
2023/06/27 09:42:54;;;;;;;4.47;1.30;;;22.30;97.40;;;;;;4973594;28;20023;-39
2023/06/27 09:45:20;;;;;;;4.53;1.58;;;22.40;97.50;;;;;;4973744;28;20029;-35
2023/06/27 09:47:50;;;;;;;2.55;1.17;;;22.40;97.50;;;;;;4973692;28;20022;-38
2023/06/27 09:50:17;;;;;;;3.60;1.20;;;22.40;97.50;;;;;;4973596;28;20034;-36
2023/06/27 09:53:03;;;;;;;2.38;1.20;;;22.40;97.60;;;;;;4974611;28;20030;-36
2023/06/27 09:55:29;;;;;;;4.20;1.63;;;22.40;97.60;;;;;;4973199;28;20097;-37
2023/06/27 09:57:56;;;;;;;3.28;1.40;;;22.40;97.60;;;;;;4973602;28;20034;-37
2023/06/27 10:00:23;;;;;;;4.00;1.30;;;22.40;97.60;;;;;;4973438;28;20482;-38
2023/06/27 10:02:52;;;;;;;4.07;1.40;;;22.40;97.70;;;;;;4973322;28;20026;-38
2023/06/27 10:05:20;;;;;;;4.93;1.25;;;22.40;97.70;;;;;;4973271;28;20066;-38
2023/06/27 10:07:48;;;;;;;2.55;1.23;;;22.40;97.70;;;;;;4973319;28;20018;-36
2023/06/27 10:10:14;;;;;;;2.67;1.35;;;22.40;97.70;;;;;;4973565;28;20042;-36
2023/06/27 10:12:42;;;;;;;2.50;1.20;;;22.40;97.70;;;;;;4973155;28;20030;-37
2023/06/27 10:15:08;;;;;;;3.45;1.35;;;22.40;97.70;;;;;;4972782;28;20046;-39
2023/06/27 10:17:34;;;;;;;1.42;0.95;;;22.40;97.70;;;;;;4973227;28;20031;-38
2023/06/27 10:20:00;;;;;;;2.63;1.30;;;22.40;97.80;;;;;;4972676;28;20479;-38
2023/06/27 10:22:31;;;;;;;3.40;1.55;;;22.40;97.70;;;;;;4972997;28;20026;-38
2023/06/27 10:25:04;;;;;;;3.15;1.40;;;22.40;97.80;;;;;;4973056;28;20041;-37
2023/06/27 10:27:35;;;;;;;2.92;1.17;;;22.40;97.80;;;;;;4973532;28;20030;-38
2023/06/27 10:30:19;;;;;;;2.58;1.13;;;22.40;97.80;;;;;;4973055;28;20023;-39
2023/06/27 10:32:45;;;;;;;2.38;1.20;;;22.40;97.80;;;;;;4972229;28;20026;-38
2023/06/27 10:35:26;;;;;;;2.67;1.20;;;22.40;97.80;;;;;;4973002;28;20027;-36
2023/06/27 10:38:09;;;;;;;3.17;1.20;;;22.40;97.80;;;;;;4972965;28;20030;-35
2023/06/27 10:40:57;;;;;;;2.95;1.23;;;22.40;97.80;;;;;;4972898;28;20054;-37
2023/06/27 10:43:40;;;;;;;2.33;1.27;;;22.40;97.90;;;;;;4972736;28;20034;-38
2023/06/27 10:46:11;;;;;;;1.40;0.95;;;22.40;97.90;;;;;;4972826;28;20536;-39
2023/06/27 10:49:01;;;;;;;2.13;1.17;;;22.40;97.90;;;;;;4973205;28;20027;-37
2023/06/27 10:51:44;;;;;;;1.77;0.77;;;22.50;97.90;;;;;;4972276;28;20027;-36
2023/06/27 10:54:12;;;;;;;3.97;0.93;;;22.40;97.90;;;;;;4972793;28;20027;-40
2023/06/27 10:56:47;;;;;;;2.03;1.05;;;22.50;97.90;;;;;;4972438;28;20434;-37
2023/06/27 10:59:18;;;;;;;1.50;0.82;;;22.50;97.90;;;;;;4972615;28;20030;-37
2023/06/27 11:02:00;;;;;;;2.30;1.17;;;22.50;97.90;;;;;;4972437;28;20031;-37
2023/06/27 11:04:40;;;;;;;3.03;1.33;;;22.50;98.00;;;;;;4972443;28;20114;-36
2023/06/27 11:07:08;;;;;;;1.85;1.10;;;22.50;98.00;;;;;;4972380;28;20050;-38
2023/06/27 11:09:37;;;;;;;1.23;0.80;;;22.50;98.00;;;;;;4972454;28;20034;-35
2023/06/27 11:12:11;;;;;;;2.58;1.20;;;22.50;98.00;;;;;;4972859;28;20023;-37
2023/06/27 11:14:42;;;;;;;1.92;1.10;;;22.50;98.30;;;;;;4972192;28;20034;-37
2023/06/27 11:17:07;;;;;;;1.40;1.00;;;22.50;98.00;;;;;;4972283;28;20046;-37
2023/06/27 11:19:35;;;;;;;3.03;0.90;;;22.50;98.00;;;;;;4972298;28;20478;-38
2023/06/27 11:22:04;;;;;;;1.92;1.10;;;22.50;98.00;;;;;;4972566;28;20113;-36
2023/06/27 11:24:30;;;;;;;1.85;1.05;;;22.50;98.00;;;;;;4972154;28;20042;-36
2023/06/27 11:26:56;;;;;;;2.40;1.00;;;22.50;98.00;;;;;;4972092;28;20146;-38
2023/06/27 11:29:23;;;;;;;2.13;1.08;;;22.50;98.00;;;;;;4972363;28;20026;-37
2023/06/27 11:31:49;;;;;;;1.70;1.13;;;22.50;98.00;;;;;;4972396;28;20394;-38
2023/06/27 11:34:16;;;;;;;1.52;0.80;;;22.50;98.10;;;;;;4972176;28;20479;-38
2023/06/27 11:36:43;;;;;;;4.00;1.02;;;22.50;98.10;;;;;;4972028;28;20037;-37
2023/06/27 11:39:13;;;;;;;2.50;1.00;;;22.50;98.10;;;;;;4972083;28;20031;-37
2023/06/27 11:41:44;;;;;;;1.73;0.80;;;22.50;98.00;;;;;;4972076;28;20038;-38
2023/06/27 11:44:11;;;;;;;2.33;1.05;;;22.50;98.00;;;;;;4972686;28;20034;-37
2023/06/27 11:46:49;;;;;;;1.88;1.02;;;22.50;98.10;;;;;;4975865;28;20037;-37
2023/06/27 11:49:16;;;;;;;3.58;1.10;;;22.50;98.10;;;;;;4975891;28;20033;-37
2023/06/27 11:51:42;;;;;;;2.63;0.80;;;22.50;98.10;;;;;;4975846;28;20035;-37
2023/06/27 11:54:08;;;;;;;1.13;0.90;;;22.50;98.10;;;;;;4975591;28;20039;-37
2023/06/27 11:56:38;;;;;;;1.95;1.00;;;22.50;98.10;;;;;;4975582;28;20058;-37
2023/06/27 11:59:06;;;;;;;1.70;0.98;;;22.50;98.10;;;;;;4976043;28;20433;-38
2023/06/27 12:01:33;;;;;;;2.42;1.00;;;22.50;98.10;;;;;;4975736;28;20089;-38
2023/06/27 12:04:01;;;;;;;2.42;1.10;;;22.50;98.10;;;;;;4975576;28;20033;-39
2023/06/27 12:06:29;;;;;;;1.75;1.05;;;22.50;98.10;;;;;;4975238;28;20022;-36
2023/06/27 12:08:56;;;;;;;1.52;0.80;;;22.50;98.10;;;;;;4975960;28;20051;-37
2023/06/27 12:11:32;;;;;;;3.55;1.35;;;22.50;98.10;;;;;;4975491;28;20027;-37
2023/06/27 12:13:58;;;;;;;1.27;0.90;;;22.50;98.10;;;;;;4975606;28;20446;-38
2023/06/27 12:16:29;;;;;;;1.30;1.00;;;22.50;98.10;;;;;;4975204;28;20038;-38
2023/06/27 12:19:05;;;;;;;1.83;0.90;;;22.50;98.10;;;;;;4975300;28;20078;-38
2023/06/27 12:21:31;;;;;;;1.63;1.00;;;22.50;98.10;;;;;;4975544;28;20027;-35
2023/06/27 12:23:57;;;;;;;3.17;1.00;;;22.50;98.10;;;;;;4975149;28;20019;-38
2023/06/27 12:26:23;;;;;;;2.05;1.27;;;22.50;98.10;;;;;;4975005;28;20535;-37
2023/06/27 12:29:00;;;;;;;1.75;1.00;;;22.50;98.20;;;;;;4974092;28;20549;-38
2023/06/27 12:31:26;;;;;;;2.15;1.20;;;22.50;98.20;;;;;;4975462;28;20470;-38
2023/06/27 12:33:53;;;;;;;1.58;0.95;;;22.50;98.50;;;;;;4974986;28;20121;-36
2023/06/27 12:36:22;;;;;;;1.75;1.00;;;22.50;98.20;;;;;;4974822;28;20035;-37
2023/06/27 12:38:49;;;;;;;1.35;0.98;;;22.50;98.20;;;;;;4975026;28;20501;-38
2023/06/27 12:41:17;;;;;;;1.73;0.90;;;22.50;98.20;;;;;;4974829;28;20039;-38
2023/06/27 12:43:42;;;;;;;1.10;0.90;;;22.50;98.20;;;;;;4974784;28;20023;-38
2023/06/27 12:46:08;;;;;;;1.42;1.00;;;22.50;98.20;;;;;;4974587;28;20030;-35
2023/06/27 12:48:34;;;;;;;0.77;0.68;;;22.50;98.20;;;;;;4974926;28;20026;-38